Kopperl, TX (76652)

12:55 AM CST on December 21, 2014 (GMT -0600)
Harris 424 Ranch | Change Station
CLOSE
Current Station
Personal Weather Station
Location: Walnut Springs, TX
Elevation: 810 ft
Nearby Weather Stations

Elev 810 ft 32.13 °N, 97.67 °W | Updated 13 seconds ago

Overcast
Overcast
46.8 °F
Feels Like 47 °F
N
1.0
Wind Variable Wind from SE
Gusts 2.0 mph

Today
High -- | Low -- °F
--% Chance of Precip.
Yesterday
High -- | Low -- °F
Precip. -- in
7:27 AM 5:29 PM
Waning Crescent, 1% visible
Pressure 30.18 in
Visibility 5.0 miles
Clouds Overcast 400 ft
Windchill 47 °F
Dew Point 45 °F
Humidity 94%
Rainfall 0.00 in
Snow Depth Not available.
UV 0 out of 12
Pollen 8.90 out of 12
Air Quality Not available.
Flu Activity Not available.
METAR KCPT 210635Z AUTO 00000KT 5SM BR OVC004 08/08 A3018 RMK AO2

More Conditions Fewer Conditions

Pressure 30.18 in
Visibility 5.0 miles
Clouds Overcast 400 ft
Windchill 47 °F
Dew Point 45 °F
Humidity 94%
Rainfall 0.00 in
Snow Depth Not available.
UV 0 out of 12
Pollen 8.90 out of 12
Air Quality Not available.
Flu Activity Not available.
METAR KCPT 210635Z AUTO 00000KT 5SM BR OVC004 08/08 A3018 RMK AO2

More Conditions Fewer Conditions

10-Day Weather Forecast

Almanac

Astronomy

Dec. 21, 2014 Rise Set
Actual Time
Civil Twilight
Nautical Twilight
Astronomical Twilight
Moon
Length of Visible Light
Length of Day
Tomorrow will be .
, % of the Moon is Illuminated

Today's Extremes

State Highs State Lows

Community

WunderPhotos

Upload Photos

1,779,360 photos uploaded!

WunderBlogs® & News

Nearby

Air Quality

  Air Quality AQ Index Pollutant
Not available.

Snow Depth

Station Depth Elevation

Earthquake Activity

City Distance Mag. Time & Date
Minimum magnitude displayed is 2.5.

Coastal Water Temperatures

Place Temperature

Nearby Weather Stations